sensor_id;sensor_type;location;lat;lon;timestamp;temperature;humidity
31731;DHT22;18310;55.586;12.286;2022-10-22T00:03:02;15.50;77.50
31731;DHT22;18310;55.586;12.286;2022-10-22T00:06:06;16.20;77.70
31731;DHT22;18310;55.586;12.286;2022-10-22T00:09:09;16.10;77.80
31731;DHT22;18310;55.586;12.286;2022-10-22T00:12:12;16.30;77.80
31731;DHT22;18310;55.586;12.286;2022-10-22T00:15:18;16.20;77.70
31731;DHT22;18310;55.586;12.286;2022-10-22T00:18:21;16.20;77.60
31731;DHT22;18310;55.586;12.286;2022-10-22T00:21:24;16.30;77.60
31731;DHT22;18310;55.586;12.286;2022-10-22T00:24:29;16.00;77.50
31731;DHT22;18310;55.586;12.286;2022-10-22T00:27:33;16.20;77.80
31731;DHT22;18310;55.586;12.286;2022-10-22T00:30:37;16.20;77.90
31731;DHT22;18310;55.586;12.286;2022-10-22T00:33:40;16.20;78.00
31731;DHT22;18310;55.586;12.286;2022-10-22T00:36:44;16.30;77.90
31731;DHT22;18310;55.586;12.286;2022-10-22T00:39:47;16.20;77.70
31731;DHT22;18310;55.586;12.286;2022-10-22T00:42:50;16.20;77.70
31731;DHT22;18310;55.586;12.286;2022-10-22T00:45:54;16.20;77.60
31731;DHT22;18310;55.586;12.286;2022-10-22T00:49:00;16.30;77.70
31731;DHT22;18310;55.586;12.286;2022-10-22T00:52:04;16.30;77.60
31731;DHT22;18310;55.586;12.286;2022-10-22T00:55:08;16.30;77.40
31731;DHT22;18310;55.586;12.286;2022-10-22T00:58:13;16.30;77.40
31731;DHT22;18310;55.586;12.286;2022-10-22T01:01:23;16.20;77.40
31731;DHT22;18310;55.586;12.286;2022-10-22T01:04:28;16.30;77.70
31731;DHT22;18310;55.586;12.286;2022-10-22T01:07:42;16.30;77.60
31731;DHT22;18310;55.586;12.286;2022-10-22T01:10:53;16.80;78.10
31731;DHT22;18310;55.586;12.286;2022-10-22T01:14:12;16.30;77.70
31731;DHT22;18310;55.586;12.286;2022-10-22T01:17:25;16.30;77.50
31731;DHT22;18310;55.586;12.286;2022-10-22T01:20:55;16.30;77.40
31731;DHT22;18310;55.586;12.286;2022-10-22T01:24:34;16.50;77.60
31731;DHT22;18310;55.586;12.286;2022-10-22T01:27:51;16.30;77.50
31731;DHT22;18310;55.586;12.286;2022-10-22T01:31:05;16.40;77.60
31731;DHT22;18310;55.586;12.286;2022-10-22T01:34:14;16.40;77.10
31731;DHT22;18310;55.586;12.286;2022-10-22T01:37:21;16.40;77.20
31731;DHT22;18310;55.586;12.286;2022-10-22T01:40:28;16.40;77.20
31731;DHT22;18310;55.586;12.286;2022-10-22T01:43:33;16.40;77.20
31731;DHT22;18310;55.586;12.286;2022-10-22T01:46:38;16.30;77.10
31731;DHT22;18310;55.586;12.286;2022-10-22T01:53:36;16.40;77.40
31731;DHT22;18310;55.586;12.286;2022-10-22T01:56:53;16.40;77.20
31731;DHT22;18310;55.586;12.286;2022-10-22T02:00:05;16.40;77.30
31731;DHT22;18310;55.586;12.286;2022-10-22T02:03:16;16.40;77.20
31731;DHT22;18310;55.586;12.286;2022-10-22T02:06:25;16.40;77.30
31731;DHT22;18310;55.586;12.286;2022-10-22T02:09:32;16.40;77.30
31731;DHT22;18310;55.586;12.286;2022-10-22T02:12:38;16.40;77.20
31731;DHT22;18310;55.586;12.286;2022-10-22T02:15:45;16.50;77.70
31731;DHT22;18310;55.586;12.286;2022-10-22T02:18:55;16.40;77.20
31731;DHT22;18310;55.586;12.286;2022-10-22T02:22:00;16.40;77.10
31731;DHT22;18310;55.586;12.286;2022-10-22T02:25:04;16.40;77.00
31731;DHT22;18310;55.586;12.286;2022-10-22T02:28:14;16.10;76.80
31731;DHT22;18310;55.586;12.286;2022-10-22T02:31:23;16.40;77.00
31731;DHT22;18310;55.586;12.286;2022-10-22T02:34:31;15.70;76.40
31731;DHT22;18310;55.586;12.286;2022-10-22T02:37:35;16.60;76.90
31731;DHT22;18310;55.586;12.286;2022-10-22T02:40:39;16.50;76.80
31731;DHT22;18310;55.586;12.286;2022-10-22T02:43:49;16.30;76.70
31731;DHT22;18310;55.586;12.286;2022-10-22T02:46:53;16.50;77.00
31731;DHT22;18310;55.586;12.286;2022-10-22T02:49:57;16.50;77.00
31731;DHT22;18310;55.586;12.286;2022-10-22T02:53:01;16.50;77.00
31731;DHT22;18310;55.586;12.286;2022-10-22T02:56:04;16.50;77.00
31731;DHT22;18310;55.586;12.286;2022-10-22T02:59:08;16.50;77.00
31731;DHT22;18310;55.586;12.286;2022-10-22T03:02:12;16.40;76.80
31731;DHT22;18310;55.586;12.286;2022-10-22T03:05:16;16.50;76.80
31731;DHT22;18310;55.586;12.286;2022-10-22T03:08:20;16.50;76.80
31731;DHT22;18310;55.586;12.286;2022-10-22T03:11:23;16.50;76.90
31731;DHT22;18310;55.586;12.286;2022-10-22T03:14:26;16.40;76.80
31731;DHT22;18310;55.586;12.286;2022-10-22T03:17:29;16.40;76.70
31731;DHT22;18310;55.586;12.286;2022-10-22T03:20:34;16.60;76.90
31731;DHT22;18310;55.586;12.286;2022-10-22T03:23:38;16.40;76.90
31731;DHT22;18310;55.586;12.286;2022-10-22T03:26:45;16.40;77.20
31731;DHT22;18310;55.586;12.286;2022-10-22T03:29:53;16.40;77.00
31731;DHT22;18310;55.586;12.286;2022-10-22T03:32:59;16.40;77.00
31731;DHT22;18310;55.586;12.286;2022-10-22T03:36:05;16.40;76.90
31731;DHT22;18310;55.586;12.286;2022-10-22T03:39:12;16.40;76.90
31731;DHT22;18310;55.586;12.286;2022-10-22T03:42:17;16.50;76.80
31731;DHT22;18310;55.586;12.286;2022-10-22T03:45:21;16.40;76.80
31731;DHT22;18310;55.586;12.286;2022-10-22T03:48:24;16.40;76.70
31731;DHT22;18310;55.586;12.286;2022-10-22T03:51:29;16.40;76.70
31731;DHT22;18310;55.586;12.286;2022-10-22T03:54:32;16.40;76.70
31731;DHT22;18310;55.586;12.286;2022-10-22T03:57:36;16.40;76.60
31731;DHT22;18310;55.586;12.286;2022-10-22T04:00:40;16.40;76.90
31731;DHT22;18310;55.586;12.286;2022-10-22T04:03:43;16.40;76.50
31731;DHT22;18310;55.586;12.286;2022-10-22T04:06:47;16.30;76.50
31731;DHT22;18310;55.586;12.286;2022-10-22T04:09:51;16.30;76.60
31731;DHT22;18310;55.586;12.286;2022-10-22T04:12:54;16.30;76.70
31731;DHT22;18310;55.586;12.286;2022-10-22T04:16:06;16.30;77.30
31731;DHT22;18310;55.586;12.286;2022-10-22T04:19:10;16.30;77.00
31731;DHT22;18310;55.586;12.286;2022-10-22T04:22:15;16.30;76.80
31731;DHT22;18310;55.586;12.286;2022-10-22T04:25:18;16.30;76.90
31731;DHT22;18310;55.586;12.286;2022-10-22T04:28:21;16.50;77.00
31731;DHT22;18310;55.586;12.286;2022-10-22T04:31:25;16.30;77.00
31731;DHT22;18310;55.586;12.286;2022-10-22T04:34:28;16.30;77.00
31731;DHT22;18310;55.586;12.286;2022-10-22T04:37:33;16.30;77.00
31731;DHT22;18310;55.586;12.286;2022-10-22T04:40:36;16.30;77.00
31731;DHT22;18310;55.586;12.286;2022-10-22T04:43:40;16.20;76.90
31731;DHT22;18310;55.586;12.286;2022-10-22T04:46:44;16.20;76.90
31731;DHT22;18310;55.586;12.286;2022-10-22T04:49:48;16.20;76.80
31731;DHT22;18310;55.586;12.286;2022-10-22T04:52:54;16.20;76.90
31731;DHT22;18310;55.586;12.286;2022-10-22T04:56:06;16.30;77.10
31731;DHT22;18310;55.586;12.286;2022-10-22T04:59:11;15.60;76.90
31731;DHT22;18310;55.586;12.286;2022-10-22T05:02:15;16.20;77.00
31731;DHT22;18310;55.586;12.286;2022-10-22T05:05:18;16.30;77.20
31731;DHT22;18310;55.586;12.286;2022-10-22T05:08:23;16.20;77.20
31731;DHT22;18310;55.586;12.286;2022-10-22T05:11:28;16.30;77.30
31731;DHT22;18310;55.586;12.286;2022-10-22T05:14:35;16.30;77.20
31731;DHT22;18310;55.586;12.286;2022-10-22T05:17:43;16.30;77.20
31731;DHT22;18310;55.586;12.286;2022-10-22T05:20:46;16.10;77.10
31731;DHT22;18310;55.586;12.286;2022-10-22T05:23:53;16.20;77.20
31731;DHT22;18310;55.586;12.286;2022-10-22T05:26:58;16.30;77.20
31731;DHT22;18310;55.586;12.286;2022-10-22T05:30:02;16.30;77.30
31731;DHT22;18310;55.586;12.286;2022-10-22T05:33:07;16.30;77.40
31731;DHT22;18310;55.586;12.286;2022-10-22T05:36:13;16.90;77.70
31731;DHT22;18310;55.586;12.286;2022-10-22T05:39:19;16.30;77.40
31731;DHT22;18310;55.586;12.286;2022-10-22T05:42:22;16.30;77.70
31731;DHT22;18310;55.586;12.286;2022-10-22T05:45:26;16.30;77.30
31731;DHT22;18310;55.586;12.286;2022-10-22T05:48:29;16.30;77.30
31731;DHT22;18310;55.586;12.286;2022-10-22T05:51:37;16.30;77.30
31731;DHT22;18310;55.586;12.286;2022-10-22T05:54:42;16.30;77.40
31731;DHT22;18310;55.586;12.286;2022-10-22T05:57:45;16.30;77.50
31731;DHT22;18310;55.586;12.286;2022-10-22T06:00:49;16.30;77.40
31731;DHT22;18310;55.586;12.286;2022-10-22T06:03:53;16.90;78.10
31731;DHT22;18310;55.586;12.286;2022-10-22T06:06:58;16.30;77.30
31731;DHT22;18310;55.586;12.286;2022-10-22T06:10:03;16.30;77.30
31731;DHT22;18310;55.586;12.286;2022-10-22T06:13:06;16.50;77.50
31731;DHT22;18310;55.586;12.286;2022-10-22T06:16:10;16.30;77.40
31731;DHT22;18310;55.586;12.286;2022-10-22T06:19:16;16.30;77.40
31731;DHT22;18310;55.586;12.286;2022-10-22T06:22:21;16.30;77.50
31731;DHT22;18310;55.586;12.286;2022-10-22T06:25:25;16.20;77.50
31731;DHT22;18310;55.586;12.286;2022-10-22T06:28:30;16.30;77.50
31731;DHT22;18310;55.586;12.286;2022-10-22T06:31:34;16.40;77.50
31731;DHT22;18310;55.586;12.286;2022-10-22T06:34:38;16.40;77.60
31731;DHT22;18310;55.586;12.286;2022-10-22T06:37:41;16.30;77.60
31731;DHT22;18310;55.586;12.286;2022-10-22T06:40:46;16.40;77.70
31731;DHT22;18310;55.586;12.286;2022-10-22T06:43:49;16.40;77.80
31731;DHT22;18310;55.586;12.286;2022-10-22T06:46:53;16.40;77.80
31731;DHT22;18310;55.586;12.286;2022-10-22T06:49:56;16.40;78.30
31731;DHT22;18310;55.586;12.286;2022-10-22T06:52:59;16.40;77.80
31731;DHT22;18310;55.586;12.286;2022-10-22T06:56:09;16.40;77.60
31731;DHT22;18310;55.586;12.286;2022-10-22T06:59:13;16.40;77.80
31731;DHT22;18310;55.586;12.286;2022-10-22T07:02:17;16.40;77.70
31731;DHT22;18310;55.586;12.286;2022-10-22T07:05:20;16.40;77.60
31731;DHT22;18310;55.586;12.286;2022-10-22T07:08:23;16.50;77.90
31731;DHT22;18310;55.586;12.286;2022-10-22T07:11:30;16.50;77.90
31731;DHT22;18310;55.586;12.286;2022-10-22T07:14:39;16.50;77.90
31731;DHT22;18310;55.586;12.286;2022-10-22T07:17:43;15.70;77.40
31731;DHT22;18310;55.586;12.286;2022-10-22T07:20:47;16.60;77.90
31731;DHT22;18310;55.586;12.286;2022-10-22T07:23:51;17.10;78.70
31731;DHT22;18310;55.586;12.286;2022-10-22T07:26:56;16.50;77.90
31731;DHT22;18310;55.586;12.286;2022-10-22T07:29:59;16.60;78.10
31731;DHT22;18310;55.586;12.286;2022-10-22T07:33:02;16.60;78.10
31731;DHT22;18310;55.586;12.286;2022-10-22T07:36:09;16.70;78.10
31731;DHT22;18310;55.586;12.286;2022-10-22T07:39:18;16.70;78.20
31731;DHT22;18310;55.586;12.286;2022-10-22T07:42:22;16.70;78.20
31731;DHT22;18310;55.586;12.286;2022-10-22T07:45:25;16.70;78.20
31731;DHT22;18310;55.586;12.286;2022-10-22T07:48:29;16.80;78.20
31731;DHT22;18310;55.586;12.286;2022-10-22T07:51:32;16.70;78.20
31731;DHT22;18310;55.586;12.286;2022-10-22T07:54:35;16.90;78.30
31731;DHT22;18310;55.586;12.286;2022-10-22T07:57:40;16.90;78.20
31731;DHT22;18310;55.586;12.286;2022-10-22T08:00:43;17.00;78.80
31731;DHT22;18310;55.586;12.286;2022-10-22T08:03:47;16.50;77.90
31731;DHT22;18310;55.586;12.286;2022-10-22T08:06:50;17.00;78.40
31731;DHT22;18310;55.586;12.286;2022-10-22T08:09:53;17.00;78.20
31731;DHT22;18310;55.586;12.286;2022-10-22T08:12:58;17.10;78.20
31731;DHT22;18310;55.586;12.286;2022-10-22T08:16:03;17.10;78.30
31731;DHT22;18310;55.586;12.286;2022-10-22T08:19:08;17.40;78.40
31731;DHT22;18310;55.586;12.286;2022-10-22T08:22:11;17.20;78.00
31731;DHT22;18310;55.586;12.286;2022-10-22T08:25:14;17.30;77.90
31731;DHT22;18310;55.586;12.286;2022-10-22T08:28:20;17.10;77.70
31731;DHT22;18310;55.586;12.286;2022-10-22T08:31:24;17.50;77.80
31731;DHT22;18310;55.586;12.286;2022-10-22T08:34:27;17.40;77.50
31731;DHT22;18310;55.586;12.286;2022-10-22T08:37:31;17.50;77.50
31731;DHT22;18310;55.586;12.286;2022-10-22T08:40:38;17.50;78.20
31731;DHT22;18310;55.586;12.286;2022-10-22T08:44:33;17.50;77.40
31731;DHT22;18310;55.586;12.286;2022-10-22T08:48:06;17.50;77.70
31731;DHT22;18310;55.586;12.286;2022-10-22T08:51:17;17.60;77.20
31731;DHT22;18310;55.586;12.286;2022-10-22T08:54:29;17.60;77.50
31731;DHT22;18310;55.586;12.286;2022-10-22T08:57:48;17.60;77.50
31731;DHT22;18310;55.586;12.286;2022-10-22T09:01:02;17.60;77.70
31731;DHT22;18310;55.586;12.286;2022-10-22T09:04:13;17.70;77.60
31731;DHT22;18310;55.586;12.286;2022-10-22T09:07:25;17.80;77.80
31731;DHT22;18310;55.586;12.286;2022-10-22T09:10:33;17.70;77.60
31731;DHT22;18310;55.586;12.286;2022-10-22T09:13:39;17.70;77.50
31731;DHT22;18310;55.586;12.286;2022-10-22T09:17:08;17.80;77.50
31731;DHT22;18310;55.586;12.286;2022-10-22T09:20:22;17.80;78.00
31731;DHT22;18310;55.586;12.286;2022-10-22T09:23:33;17.80;77.30
31731;DHT22;18310;55.586;12.286;2022-10-22T09:26:41;17.80;77.20
31731;DHT22;18310;55.586;12.286;2022-10-22T09:29:47;17.80;77.70
31731;DHT22;18310;55.586;12.286;2022-10-22T09:32:54;17.90;77.20
31731;DHT22;18310;55.586;12.286;2022-10-22T09:36:03;17.40;76.90
31731;DHT22;18310;55.586;12.286;2022-10-22T09:39:21;17.90;77.20
31731;DHT22;18310;55.586;12.286;2022-10-22T09:42:27;17.80;77.20
31731;DHT22;18310;55.586;12.286;2022-10-22T09:45:31;17.90;77.20
31731;DHT22;18310;55.586;12.286;2022-10-22T09:48:36;18.00;77.10
31731;DHT22;18310;55.586;12.286;2022-10-22T09:51:50;17.90;77.00
31731;DHT22;18310;55.586;12.286;2022-10-22T09:54:56;18.00;77.10
31731;DHT22;18310;55.586;12.286;2022-10-22T09:58:04;17.90;77.00
31731;DHT22;18310;55.586;12.286;2022-10-22T10:01:17;17.90;77.00
31731;DHT22;18310;55.586;12.286;2022-10-22T10:04:25;17.90;77.20
31731;DHT22;18310;55.586;12.286;2022-10-22T10:07:30;17.90;77.20
31731;DHT22;18310;55.586;12.286;2022-10-22T10:10:42;18.00;77.30
31731;DHT22;18310;55.586;12.286;2022-10-22T10:13:56;17.90;77.40
31731;DHT22;18310;55.586;12.286;2022-10-22T10:17:12;18.50;77.50
31731;DHT22;18310;55.586;12.286;2022-10-22T10:20:34;18.10;77.30
31731;DHT22;18310;55.586;12.286;2022-10-22T10:23:47;18.10;77.20
31731;DHT22;18310;55.586;12.286;2022-10-22T10:27:04;18.20;77.10
31731;DHT22;18310;55.586;12.286;2022-10-22T10:30:14;18.20;77.10
31731;DHT22;18310;55.586;12.286;2022-10-22T10:33:30;18.20;77.00
31731;DHT22;18310;55.586;12.286;2022-10-22T10:36:47;18.30;77.00
31731;DHT22;18310;55.586;12.286;2022-10-22T10:40:17;18.30;76.80
31731;DHT22;18310;55.586;12.286;2022-10-22T10:43:31;18.30;76.70
31731;DHT22;18310;55.586;12.286;2022-10-22T10:46:49;18.30;76.70
31731;DHT22;18310;55.586;12.286;2022-10-22T10:50:15;18.30;76.70
31731;DHT22;18310;55.586;12.286;2022-10-22T10:53:31;18.40;76.50
31731;DHT22;18310;55.586;12.286;2022-10-22T10:56:52;18.40;76.50
31731;DHT22;18310;55.586;12.286;2022-10-22T11:00:04;18.40;76.50
31731;DHT22;18310;55.586;12.286;2022-10-22T11:03:33;18.40;76.40
31731;DHT22;18310;55.586;12.286;2022-10-22T11:06:48;18.50;76.40
31731;DHT22;18310;55.586;12.286;2022-10-22T11:10:09;18.40;76.30
31731;DHT22;18310;55.586;12.286;2022-10-22T11:13:27;18.50;76.00
31731;DHT22;18310;55.586;12.286;2022-10-22T11:16:38;18.50;76.10
31731;DHT22;18310;55.586;12.286;2022-10-22T11:19:51;18.50;76.10
31731;DHT22;18310;55.586;12.286;2022-10-22T11:23:07;18.50;76.10
31731;DHT22;18310;55.586;12.286;2022-10-22T11:26:31;18.50;76.20
31731;DHT22;18310;55.586;12.286;2022-10-22T11:29:42;18.50;75.90
31731;DHT22;18310;55.586;12.286;2022-10-22T11:32:53;18.60;75.90
31731;DHT22;18310;55.586;12.286;2022-10-22T11:36:01;18.60;75.80
31731;DHT22;18310;55.586;12.286;2022-10-22T11:39:27;18.60;75.60
31731;DHT22;18310;55.586;12.286;2022-10-22T11:42:36;18.70;75.30
31731;DHT22;18310;55.586;12.286;2022-10-22T11:45:42;18.70;75.40
31731;DHT22;18310;55.586;12.286;2022-10-22T11:49:00;18.70;75.40
31731;DHT22;18310;55.586;12.286;2022-10-22T11:52:22;18.70;75.10
31731;DHT22;18310;55.586;12.286;2022-10-22T11:55:42;18.70;75.10
31731;DHT22;18310;55.586;12.286;2022-10-22T11:58:51;18.80;75.10
31731;DHT22;18310;55.586;12.286;2022-10-22T12:01:56;18.10;74.90
31731;DHT22;18310;55.586;12.286;2022-10-22T12:08:49;18.80;74.30
31731;DHT22;18310;55.586;12.286;2022-10-22T12:12:02;18.80;74.70
31731;DHT22;18310;55.586;12.286;2022-10-22T12:15:23;18.80;74.90
31731;DHT22;18310;55.586;12.286;2022-10-22T12:18:34;18.80;74.40
31731;DHT22;18310;55.586;12.286;2022-10-22T12:21:46;18.80;74.70
31731;DHT22;18310;55.586;12.286;2022-10-22T12:24:53;18.80;74.90
31731;DHT22;18310;55.586;12.286;2022-10-22T12:27:58;18.90;75.10
31731;DHT22;18310;55.586;12.286;2022-10-22T12:31:03;19.00;75.10
31731;DHT22;18310;55.586;12.286;2022-10-22T12:34:12;19.00;74.80
31731;DHT22;18310;55.586;12.286;2022-10-22T12:37:17;19.10;74.30
31731;DHT22;18310;55.586;12.286;2022-10-22T12:40:23;19.20;74.30
31731;DHT22;18310;55.586;12.286;2022-10-22T12:43:29;19.70;74.30
31731;DHT22;18310;55.586;12.286;2022-10-22T12:46:35;19.20;74.20
31731;DHT22;18310;55.586;12.286;2022-10-22T12:49:42;19.20;73.90
31731;DHT22;18310;55.586;12.286;2022-10-22T12:52:49;19.20;73.50
31731;DHT22;18310;55.586;12.286;2022-10-22T12:55:59;19.30;73.70
31731;DHT22;18310;55.586;12.286;2022-10-22T12:59:06;19.30;73.30
31731;DHT22;18310;55.586;12.286;2022-10-22T13:02:21;19.20;73.20
31731;DHT22;18310;55.586;12.286;2022-10-22T13:05:29;19.20;73.20
31731;DHT22;18310;55.586;12.286;2022-10-22T13:08:39;18.80;73.00
31731;DHT22;18310;55.586;12.286;2022-10-22T13:11:50;19.20;73.40
31731;DHT22;18310;55.586;12.286;2022-10-22T13:14:56;19.20;73.30
31731;DHT22;18310;55.586;12.286;2022-10-22T13:18:22;19.30;73.50
31731;DHT22;18310;55.586;12.286;2022-10-22T13:21:31;19.30;73.40
31731;DHT22;18310;55.586;12.286;2022-10-22T13:24:47;19.40;73.90
31731;DHT22;18310;55.586;12.286;2022-10-22T13:27:53;19.40;73.00
31731;DHT22;18310;55.586;12.286;2022-10-22T13:30:59;19.40;73.20
31731;DHT22;18310;55.586;12.286;2022-10-22T13:34:06;19.40;73.10
31731;DHT22;18310;55.586;12.286;2022-10-22T13:37:17;19.50;73.00
31731;DHT22;18310;55.586;12.286;2022-10-22T13:40:21;19.40;73.00
31731;DHT22;18310;55.586;12.286;2022-10-22T13:43:24;19.40;73.00
31731;DHT22;18310;55.586;12.286;2022-10-22T13:46:28;19.40;73.10
31731;DHT22;18310;55.586;12.286;2022-10-22T13:49:33;19.30;73.10
31731;DHT22;18310;55.586;12.286;2022-10-22T13:52:39;19.30;73.20
31731;DHT22;18310;55.586;12.286;2022-10-22T13:55:44;19.30;73.40
31731;DHT22;18310;55.586;12.286;2022-10-22T13:58:48;19.30;73.40
31731;DHT22;18310;55.586;12.286;2022-10-22T14:01:51;19.30;73.30
31731;DHT22;18310;55.586;12.286;2022-10-22T14:04:57;19.30;73.40
31731;DHT22;18310;55.586;12.286;2022-10-22T14:08:08;19.30;73.50
31731;DHT22;18310;55.586;12.286;2022-10-22T14:11:15;19.30;73.50
31731;DHT22;18310;55.586;12.286;2022-10-22T14:14:20;19.40;73.50
31731;DHT22;18310;55.586;12.286;2022-10-22T14:17:31;19.40;73.20
31731;DHT22;18310;55.586;12.286;2022-10-22T14:20:38;19.30;72.70
31731;DHT22;18310;55.586;12.286;2022-10-22T14:23:45;19.30;72.60
31731;DHT22;18310;55.586;12.286;2022-10-22T14:26:55;19.20;72.70
31731;DHT22;18310;55.586;12.286;2022-10-22T14:30:05;19.60;72.90
31731;DHT22;18310;55.586;12.286;2022-10-22T14:33:17;18.90;72.90
31731;DHT22;18310;55.586;12.286;2022-10-22T14:36:37;18.90;73.40
31731;DHT22;18310;55.586;12.286;2022-10-22T14:39:44;18.90;73.70
31731;DHT22;18310;55.586;12.286;2022-10-22T14:42:52;18.90;74.00
31731;DHT22;18310;55.586;12.286;2022-10-22T14:45:56;18.90;74.10
31731;DHT22;18310;55.586;12.286;2022-10-22T14:48:59;18.90;74.10
31731;DHT22;18310;55.586;12.286;2022-10-22T14:52:04;19.10;73.90
31731;DHT22;18310;55.586;12.286;2022-10-22T14:55:14;19.00;73.60
31731;DHT22;18310;55.586;12.286;2022-10-22T14:58:19;19.00;73.50
31731;DHT22;18310;55.586;12.286;2022-10-22T15:01:22;18.90;73.40
31731;DHT22;18310;55.586;12.286;2022-10-22T15:04:25;18.90;73.40
31731;DHT22;18310;55.586;12.286;2022-10-22T15:07:30;18.80;73.30
31731;DHT22;18310;55.586;12.286;2022-10-22T15:10:33;18.80;73.30
31731;DHT22;18310;55.586;12.286;2022-10-22T15:13:37;18.80;73.40
31731;DHT22;18310;55.586;12.286;2022-10-22T15:16:42;18.70;73.40
31731;DHT22;18310;55.586;12.286;2022-10-22T15:19:45;18.70;73.60
31731;DHT22;18310;55.586;12.286;2022-10-22T15:22:49;18.60;73.70
31731;DHT22;18310;55.586;12.286;2022-10-22T15:25:53;18.60;74.40
31731;DHT22;18310;55.586;12.286;2022-10-22T15:28:57;18.50;73.80
31731;DHT22;18310;55.586;12.286;2022-10-22T15:32:04;18.50;73.80
31731;DHT22;18310;55.586;12.286;2022-10-22T15:35:13;18.50;73.80
31731;DHT22;18310;55.586;12.286;2022-10-22T15:38:20;18.40;73.90
31731;DHT22;18310;55.586;12.286;2022-10-22T15:41:31;18.40;74.10
31731;DHT22;18310;55.586;12.286;2022-10-22T15:44:37;18.30;74.00
31731;DHT22;18310;55.586;12.286;2022-10-22T15:47:46;18.30;74.20
31731;DHT22;18310;55.586;12.286;2022-10-22T15:50:55;18.20;74.10
31731;DHT22;18310;55.586;12.286;2022-10-22T15:54:02;18.20;74.00
31731;DHT22;18310;55.586;12.286;2022-10-22T15:57:10;18.10;74.20
31731;DHT22;18310;55.586;12.286;2022-10-22T16:00:23;18.00;74.30
31731;DHT22;18310;55.586;12.286;2022-10-22T16:03:35;17.90;74.70
31731;DHT22;18310;55.586;12.286;2022-10-22T16:06:44;17.90;74.60
31731;DHT22;18310;55.586;12.286;2022-10-22T16:10:18;17.80;74.70
31731;DHT22;18310;55.586;12.286;2022-10-22T16:13:32;17.70;75.00
31731;DHT22;18310;55.586;12.286;2022-10-22T16:16:43;17.60;75.10
31731;DHT22;18310;55.586;12.286;2022-10-22T16:19:47;17.60;75.40
31731;DHT22;18310;55.586;12.286;2022-10-22T16:22:50;17.60;75.40
31731;DHT22;18310;55.586;12.286;2022-10-22T16:25:59;17.50;75.30
31731;DHT22;18310;55.586;12.286;2022-10-22T16:29:04;17.50;75.40
31731;DHT22;18310;55.586;12.286;2022-10-22T16:32:11;17.50;75.30
31731;DHT22;18310;55.586;12.286;2022-10-22T16:35:21;17.40;75.20
31731;DHT22;18310;55.586;12.286;2022-10-22T16:38:25;17.40;75.30
31731;DHT22;18310;55.586;12.286;2022-10-22T16:41:31;17.30;75.20
31731;DHT22;18310;55.586;12.286;2022-10-22T16:44:37;17.30;75.60
31731;DHT22;18310;55.586;12.286;2022-10-22T16:47:40;17.30;75.60
31731;DHT22;18310;55.586;12.286;2022-10-22T16:50:44;17.80;76.00
31731;DHT22;18310;55.586;12.286;2022-10-22T16:53:47;17.20;76.40
31731;DHT22;18310;55.586;12.286;2022-10-22T16:56:55;17.50;75.80
31731;DHT22;18310;55.586;12.286;2022-10-22T16:59:58;17.10;75.90
31731;DHT22;18310;55.586;12.286;2022-10-22T17:03:02;17.10;76.10
31731;DHT22;18310;55.586;12.286;2022-10-22T17:06:20;17.10;76.70
31731;DHT22;18310;55.586;12.286;2022-10-22T17:09:23;17.90;76.70
31731;DHT22;18310;55.586;12.286;2022-10-22T17:12:28;17.40;76.50
31731;DHT22;18310;55.586;12.286;2022-10-22T17:15:35;17.10;76.50
31731;DHT22;18310;55.586;12.286;2022-10-22T17:18:40;17.20;76.40
31731;DHT22;18310;55.586;12.286;2022-10-22T17:21:47;17.20;76.50
31731;DHT22;18310;55.586;12.286;2022-10-22T17:25:07;17.10;76.40
31731;DHT22;18310;55.586;12.286;2022-10-22T17:28:15;17.20;76.80
31731;DHT22;18310;55.586;12.286;2022-10-22T17:31:20;17.10;76.50
31731;DHT22;18310;55.586;12.286;2022-10-22T17:34:26;17.20;76.50
31731;DHT22;18310;55.586;12.286;2022-10-22T17:37:31;17.20;76.50
31731;DHT22;18310;55.586;12.286;2022-10-22T17:40:34;17.20;76.50
31731;DHT22;18310;55.586;12.286;2022-10-22T17:43:41;17.30;76.60
31731;DHT22;18310;55.586;12.286;2022-10-22T17:46:44;17.30;76.60
31731;DHT22;18310;55.586;12.286;2022-10-22T17:49:50;17.20;76.50
31731;DHT22;18310;55.586;12.286;2022-10-22T17:52:54;17.30;76.50
31731;DHT22;18310;55.586;12.286;2022-10-22T17:55:58;17.30;76.50
31731;DHT22;18310;55.586;12.286;2022-10-22T17:59:08;17.30;76.50
31731;DHT22;18310;55.586;12.286;2022-10-22T18:02:16;17.30;76.40
31731;DHT22;18310;55.586;12.286;2022-10-22T18:05:20;17.30;76.60
31731;DHT22;18310;55.586;12.286;2022-10-22T18:08:24;17.30;76.50
31731;DHT22;18310;55.586;12.286;2022-10-22T18:11:28;17.30;77.00
31731;DHT22;18310;55.586;12.286;2022-10-22T18:14:34;17.30;76.30
31731;DHT22;18310;55.586;12.286;2022-10-22T18:17:40;17.20;76.40
31731;DHT22;18310;55.586;12.286;2022-10-22T18:20:47;17.20;76.40
31731;DHT22;18310;55.586;12.286;2022-10-22T18:23:51;17.20;76.60
31731;DHT22;18310;55.586;12.286;2022-10-22T18:26:54;17.20;76.70
31731;DHT22;18310;55.586;12.286;2022-10-22T18:29:59;17.20;76.70
31731;DHT22;18310;55.586;12.286;2022-10-22T18:33:02;17.20;76.70
31731;DHT22;18310;55.586;12.286;2022-10-22T18:36:07;18.10;77.20
31731;DHT22;18310;55.586;12.286;2022-10-22T18:39:13;17.20;76.70
31731;DHT22;18310;55.586;12.286;2022-10-22T18:42:18;17.10;76.70
31731;DHT22;18310;55.586;12.286;2022-10-22T18:45:28;17.20;76.70
31731;DHT22;18310;55.586;12.286;2022-10-22T18:48:38;16.70;76.50
31731;DHT22;18310;55.586;12.286;2022-10-22T18:51:41;17.10;76.70
31731;DHT22;18310;55.586;12.286;2022-10-22T18:54:44;17.10;76.80
31731;DHT22;18310;55.586;12.286;2022-10-22T18:57:50;17.30;76.90
31731;DHT22;18310;55.586;12.286;2022-10-22T19:01:11;17.10;76.90
31731;DHT22;18310;55.586;12.286;2022-10-22T19:04:29;17.10;77.20
31731;DHT22;18310;55.586;12.286;2022-10-22T19:07:37;17.10;77.00
31731;DHT22;18310;55.586;12.286;2022-10-22T19:10:41;17.20;77.00
31731;DHT22;18310;55.586;12.286;2022-10-22T19:13:46;17.20;77.00
31731;DHT22;18310;55.586;12.286;2022-10-22T19:16:50;17.10;76.90
31731;DHT22;18310;55.586;12.286;2022-10-22T19:19:53;17.10;77.10
31731;DHT22;18310;55.586;12.286;2022-10-22T19:22:56;17.20;77.20
31731;DHT22;18310;55.586;12.286;2022-10-22T19:26:02;17.10;77.00
31731;DHT22;18310;55.586;12.286;2022-10-22T19:29:08;17.10;77.00
31731;DHT22;18310;55.586;12.286;2022-10-22T19:32:13;17.20;77.00
31731;DHT22;18310;55.586;12.286;2022-10-22T19:35:17;17.40;77.10